Ellsberry, Ohio
Current Conditions -  °F | °C
As of 3:35 PM on Monday 22 Dec 2014 (Local Time) from KFGX Reporting Station
Clear Clear  
Wind Chill: 51°   Ceiling: Unl
Heat Index: 51°   Visibility: 10mi
Dew Point: 40°   Wind: 8mph
Humidity: 65%   Direction: 100°E
Pressure: 29.84"   Gusts: NA
Location:  38.6956°N, 83.7386°W
Report Text: KFGX 222035Z AUTO 10007KT 10SM CLR 11/04 A2984 RMK AO2 T01060042
Loading
Personal Weather Stations






























Interactive Weather Map New forecast layout! Learn more

10-Day Weather Forecast

Advertisements
Track Severe Weather on mobile